createdAt,value
2018-01-04T00:00:02.890Z,2.35
2018-01-04T00:02:32.858Z,2.12
2018-01-04T00:05:02.158Z,1.62
2018-01-04T00:07:31.276Z,2.08
2018-01-04T00:10:00.426Z,2.15
2018-01-04T00:12:29.685Z,1.90
2018-01-04T00:14:58.813Z,1.35
2018-01-04T00:17:27.940Z,1.27
2018-01-04T00:19:57.160Z,1.25
2018-01-04T00:22:26.282Z,2.28
2018-01-04T00:24:56.228Z,2.42
2018-01-04T00:27:25.573Z,1.75
2018-01-04T00:29:54.726Z,2.03
2018-01-04T00:32:23.921Z,2.42
2018-01-04T00:34:53.111Z,2.47
2018-01-04T00:37:22.243Z,1.52
2018-01-04T00:39:52.278Z,2.30
2018-01-04T00:42:21.456Z,1.98
2018-01-04T00:44:51.048Z,2.40
2018-01-04T00:47:20.256Z,2.70
2018-01-04T00:49:49.467Z,3.40
2018-01-04T00:52:19.353Z,3.17
2018-01-04T00:54:48.473Z,2.70
2018-01-04T00:57:17.632Z,2.10
2018-01-04T00:59:46.721Z,1.98
2018-01-04T01:02:16.623Z,2.15
2018-01-04T01:04:45.758Z,1.90
2018-01-04T01:07:15.623Z,2.70
2018-01-04T01:09:44.713Z,1.65
2018-01-04T01:12:13.833Z,1.27
2018-01-04T01:14:42.946Z,1.58
2018-01-04T01:17:12.061Z,1.67
2018-01-04T01:19:41.385Z,2.30
2018-01-04T01:22:10.522Z,1.55
2018-01-04T01:24:39.615Z,1.80
2018-01-04T01:27:08.750Z,2.83
2018-01-04T01:29:38.604Z,1.25
2018-01-04T01:32:07.706Z,2.22
2018-01-04T01:34:37.386Z,1.50
2018-01-04T01:37:06.512Z,2.20
2018-01-04T01:39:35.601Z,1.58
2018-01-04T01:42:04.795Z,1.70
2018-01-04T01:44:33.903Z,1.87
2018-01-04T01:47:03.002Z,1.60
2018-01-04T01:49:32.924Z,1.02
2018-01-04T01:52:02.794Z,1.90
2018-01-04T01:54:31.891Z,0.95
2018-01-04T01:57:01.035Z,1.30
2018-01-04T01:59:30.270Z,1.05
2018-01-04T02:02:00.197Z,1.08
2018-01-04T02:04:30.002Z,1.08
2018-01-04T02:06:59.102Z,1.23
2018-01-04T02:09:28.258Z,1.70
2018-01-04T02:11:58.482Z,1.10
2018-01-04T02:14:27.594Z,1.20
2018-01-04T02:16:56.790Z,1.30
2018-01-04T02:19:43.994Z,1.30
2018-01-04T02:22:30.904Z,1.10
2018-01-04T02:25:19.595Z,1.45
2018-01-04T02:28:07.820Z,1.25
2018-01-04T02:30:54.907Z,0.70
2018-01-04T02:36:55.120Z,1.85
2018-01-04T02:39:41.980Z,0.80
2018-01-04T02:45:53.244Z,1.73
2018-01-04T02:48:22.492Z,1.25
2018-01-04T02:50:51.605Z,1.35
2018-01-04T02:53:20.710Z,0.98
2018-01-04T02:55:51.003Z,1.40
2018-01-04T02:58:20.074Z,1.10
2018-01-04T03:00:49.169Z,1.87
2018-01-04T03:03:18.304Z,1.45
2018-01-04T03:05:47.423Z,1.45
2018-01-04T03:08:16.513Z,1.40
2018-01-04T03:10:46.399Z,0.95
2018-01-04T03:13:16.266Z,1.25
2018-01-04T03:15:45.387Z,1.10
2018-01-04T03:18:15.333Z,0.90
2018-01-04T03:20:44.429Z,1.30
2018-01-04T03:23:19.251Z,2.03
2018-01-04T03:25:53.814Z,1.33
2018-01-04T03:28:28.600Z,1.05
2018-01-04T03:31:04.080Z,1.00
2018-01-04T03:33:38.741Z,1.58
2018-01-04T03:36:13.351Z,0.93
2018-01-04T03:38:47.870Z,2.10
2018-01-04T03:41:23.192Z,1.45
2018-01-04T03:43:58.763Z,1.67
2018-01-04T03:46:33.360Z,1.80
2018-01-04T03:49:08.030Z,4.12
2018-01-04T03:51:42.668Z,2.15
2018-01-04T03:54:17.233Z,1.80
2018-01-04T03:56:52.598Z,1.10
2018-01-04T03:59:27.399Z,1.95
2018-01-04T04:02:01.924Z,1.35
2018-01-04T04:04:36.977Z,3.70
2018-01-04T04:07:11.691Z,1.45
2018-01-04T04:09:40.832Z,2.12
2018-01-04T04:12:09.925Z,1.58
2018-01-04T04:14:39.018Z,2.28
2018-01-04T04:17:08.154Z,2.05
2018-01-04T04:19:37.288Z,1.83
2018-01-04T04:22:06.393Z,2.05
2018-01-04T04:24:36.258Z,1.70
2018-01-04T04:27:05.373Z,1.83
2018-01-04T04:29:34.463Z,2.47
2018-01-04T04:32:04.450Z,2.70
2018-01-04T04:34:33.556Z,1.45
2018-01-04T04:37:02.656Z,1.58
2018-01-04T04:39:32.523Z,2.03
2018-01-04T04:42:01.625Z,1.25
2018-01-04T04:44:31.537Z,1.40
2018-01-04T04:47:00.714Z,1.60
2018-01-04T04:49:29.834Z,1.37
2018-01-04T04:51:59.069Z,1.45
2018-01-04T04:54:28.584Z,1.52
2018-01-04T04:56:57.720Z,1.60
2018-01-04T04:59:27.639Z,1.85
2018-01-04T05:01:57.005Z,1.77
2018-01-04T05:04:26.217Z,1.35
2018-01-04T05:06:55.389Z,1.00
2018-01-04T05:09:25.413Z,1.65
2018-01-04T05:11:54.610Z,1.20
2018-01-04T05:14:24.523Z,1.02
2018-01-04T05:16:54.252Z,1.55
2018-01-04T05:19:24.423Z,1.10
2018-01-04T05:21:53.590Z,1.42
2018-01-04T05:24:23.559Z,1.17
2018-01-04T05:26:52.694Z,1.50
2018-01-04T05:29:22.682Z,2.22
2018-01-04T05:31:53.093Z,1.80
2018-01-04T05:34:22.240Z,1.58
2018-01-04T05:36:51.598Z,2.15
2018-01-04T05:39:20.824Z,1.85
2018-01-04T05:41:49.954Z,1.23
2018-01-04T05:44:19.062Z,1.83
2018-01-04T05:46:48.595Z,1.40
2018-01-04T05:49:18.510Z,1.60
2018-01-04T05:51:47.642Z,1.27
2018-01-04T05:54:17.571Z,1.17
2018-01-04T05:56:47.553Z,1.50
2018-01-04T05:59:16.668Z,1.30
2018-01-04T06:01:45.967Z,2.33
2018-01-04T06:04:15.118Z,1.58
2018-01-04T06:06:45.004Z,1.05
2018-01-04T06:09:14.160Z,1.60
2018-01-04T06:11:44.090Z,1.02
2018-01-04T06:14:14.936Z,1.15
2018-01-04T06:16:45.277Z,1.50
2018-01-04T06:19:14.364Z,1.48
2018-01-04T06:21:43.442Z,1.65
2018-01-04T06:24:12.589Z,3.35
2018-01-04T06:26:41.704Z,1.77
2018-01-04T06:29:11.636Z,2.15
2018-01-04T06:31:41.579Z,2.03
2018-01-04T06:34:10.661Z,1.48
2018-01-04T06:36:39.767Z,2.00
2018-01-04T06:39:09.687Z,1.48
2018-01-04T06:41:38.821Z,1.70
2018-01-04T06:44:08.710Z,1.70
2018-01-04T06:46:37.906Z,1.33
2018-01-04T06:49:07.010Z,1.50
2018-01-04T06:51:36.160Z,2.17
2018-01-04T06:54:06.175Z,1.50
2018-01-04T06:56:35.304Z,1.70
2018-01-04T06:59:04.418Z,2.00
2018-01-04T07:01:34.817Z,1.70
2018-01-04T07:04:03.967Z,3.17
2018-01-04T07:06:33.899Z,1.60
2018-01-04T07:09:03.060Z,1.77
2018-01-04T07:11:32.191Z,1.67
2018-01-04T07:14:01.401Z,2.15
2018-01-04T07:16:31.120Z,1.65
2018-01-04T07:19:00.225Z,1.60
2018-01-04T07:21:29.373Z,1.20
2018-01-04T07:23:59.286Z,1.42
2018-01-04T07:26:28.433Z,2.17
2018-01-04T07:28:57.658Z,1.35
2018-01-04T07:31:27.043Z,1.62
2018-01-04T07:33:56.261Z,1.85
2018-01-04T07:36:25.405Z,1.50
2018-01-04T07:38:54.672Z,1.40
2018-01-04T07:41:24.560Z,1.55
2018-01-04T07:43:53.859Z,2.53
2018-01-04T07:46:23.962Z,1.40
2018-01-04T07:48:53.074Z,1.10
2018-01-04T07:51:22.252Z,2.25
2018-01-04T07:53:52.187Z,1.48
2018-01-04T07:56:21.314Z,1.42
2018-01-04T07:58:50.426Z,1.60
2018-01-04T08:01:19.780Z,1.62
2018-01-04T08:03:48.915Z,1.70
2018-01-04T08:06:18.019Z,1.67
2018-01-04T08:08:47.666Z,1.42
2018-01-04T08:11:16.788Z,2.03
2018-01-04T08:13:45.915Z,1.15
2018-01-04T08:16:15.042Z,1.37
2018-01-04T08:18:44.138Z,1.85
2018-01-04T08:21:13.301Z,1.65
2018-01-04T08:23:44.248Z,1.33
2018-01-04T08:26:14.211Z,1.98
2018-01-04T08:28:43.327Z,2.28
2018-01-04T08:31:13.960Z,2.60
2018-01-04T08:33:43.053Z,2.42
2018-01-04T08:36:12.174Z,3.00
2018-01-04T08:38:41.683Z,2.37
2018-01-04T08:41:10.779Z,2.00
2018-01-04T08:43:40.638Z,2.03
2018-01-04T08:46:09.779Z,1.58
2018-01-04T08:48:38.878Z,2.03
2018-01-04T08:51:07.986Z,1.95
2018-01-04T08:53:37.919Z,2.10
2018-01-04T08:56:07.012Z,1.55
2018-01-04T08:58:36.098Z,2.20
2018-01-04T09:01:05.250Z,1.73
2018-01-04T09:03:34.405Z,1.05
2018-01-04T09:06:04.285Z,1.12
2018-01-04T09:08:33.535Z,1.98
2018-01-04T09:11:03.391Z,1.40
2018-01-04T09:13:32.491Z,1.90
2018-01-04T09:16:01.630Z,1.23
2018-01-04T09:18:30.742Z,1.10
2018-01-04T09:20:59.834Z,1.10
2018-01-04T09:23:28.979Z,1.45
2018-01-04T09:25:58.260Z,1.20
2018-01-04T09:28:27.487Z,1.27
2018-01-04T09:30:56.713Z,1.15
2018-01-04T09:33:27.516Z,1.58
2018-01-04T09:35:58.812Z,1.10
2018-01-04T09:38:27.978Z,1.52
2018-01-04T09:40:57.275Z,1.90
2018-01-04T09:43:27.966Z,1.40
2018-01-04T09:45:57.100Z,1.55
2018-01-04T09:48:27.014Z,1.90
2018-01-04T09:50:56.698Z,1.80
2018-01-04T09:53:25.964Z,1.55
2018-01-04T09:55:55.119Z,1.55
2018-01-04T09:58:24.403Z,1.25
2018-01-04T10:00:53.595Z,1.67
2018-01-04T10:03:23.602Z,1.10
2018-01-04T10:05:53.385Z,1.25
2018-01-04T10:08:23.300Z,1.35
2018-01-04T10:10:52.454Z,1.92
2018-01-04T10:13:22.156Z,1.60
2018-01-04T10:15:51.326Z,1.20
2018-01-04T10:18:20.424Z,1.25
2018-01-04T10:20:49.675Z,1.80
2018-01-04T10:23:19.533Z,1.20
2018-01-04T10:25:48.771Z,1.75
2018-01-04T10:28:18.195Z,1.50
2018-01-04T10:30:47.377Z,2.30
2018-01-04T10:33:16.966Z,1.48
2018-01-04T10:35:47.675Z,2.10
2018-01-04T10:38:16.783Z,1.60
2018-01-04T10:40:46.001Z,1.92
2018-01-04T10:43:15.157Z,1.35
2018-01-04T10:45:44.339Z,2.03
2018-01-04T10:48:13.651Z,2.05
2018-01-04T10:50:43.674Z,1.90
2018-01-04T10:53:12.820Z,1.95
2018-01-04T10:55:42.047Z,1.60
2018-01-04T10:58:11.220Z,1.48
2018-01-04T11:00:40.398Z,2.00
2018-01-04T11:03:09.589Z,1.95
2018-01-04T11:05:38.863Z,1.75
2018-01-04T11:08:08.761Z,1.87
2018-01-04T11:10:37.930Z,2.12
2018-01-04T11:13:07.481Z,1.50
2018-01-04T11:15:36.569Z,1.67
2018-01-04T11:18:05.674Z,1.37
2018-01-04T11:20:34.853Z,2.10
2018-01-04T11:23:04.804Z,2.20
2018-01-04T11:25:33.944Z,2.12
2018-01-04T11:28:03.494Z,2.00
2018-01-04T11:30:33.745Z,1.60
2018-01-04T11:33:03.372Z,1.73
2018-01-04T11:35:32.962Z,2.10
2018-01-04T11:38:02.929Z,1.85
2018-01-04T11:40:32.160Z,2.05
2018-01-04T11:43:01.342Z,3.35
2018-01-04T11:45:30.457Z,4.07
2018-01-04T11:47:59.696Z,2.65
2018-01-04T11:50:29.248Z,2.72
2018-01-04T11:52:58.411Z,3.58
2018-01-04T11:55:28.353Z,2.58
2018-01-04T11:57:57.585Z,2.65
2018-01-04T12:00:27.107Z,2.03
2018-01-04T12:02:56.449Z,1.48
2018-01-04T12:05:26.458Z,2.30
2018-01-04T12:07:55.582Z,1.85
2018-01-04T12:10:24.973Z,1.52
2018-01-04T12:12:54.340Z,1.60
2018-01-04T12:15:23.779Z,2.20
2018-01-04T12:17:52.970Z,1.45
2018-01-04T12:20:22.335Z,1.77
2018-01-04T12:22:51.577Z,3.37
2018-01-04T12:25:21.473Z,2.15
2018-01-04T12:27:50.614Z,1.80
2018-01-04T12:30:19.762Z,1.90
2018-01-04T12:32:48.882Z,1.60
2018-01-04T12:35:18.133Z,1.33
2018-01-04T12:37:47.230Z,2.05
2018-01-04T12:40:16.427Z,1.40
2018-01-04T12:42:46.374Z,0.98
2018-01-04T12:45:15.461Z,1.65
2018-01-04T12:50:26.613Z,1.73
2018-01-04T12:52:55.861Z,1.20
2018-01-04T12:55:25.951Z,1.95
2018-01-04T12:57:55.484Z,2.67
2018-01-04T13:00:24.661Z,1.70
2018-01-04T13:02:53.821Z,1.50
2018-01-04T13:05:23.110Z,1.50
2018-01-04T13:07:52.293Z,1.60
2018-01-04T13:10:21.448Z,1.85
2018-01-04T13:12:52.954Z,2.62
2018-01-04T13:15:22.173Z,2.58
2018-01-04T13:17:51.364Z,2.17
2018-01-04T13:20:20.631Z,2.22
2018-01-04T13:22:50.489Z,1.40
2018-01-04T13:25:19.763Z,1.80
2018-01-04T13:27:49.471Z,2.00
2018-01-04T13:30:18.733Z,2.00
2018-01-04T13:32:47.853Z,3.00
2018-01-04T13:35:17.129Z,2.47
2018-01-04T13:37:46.349Z,2.35
2018-01-04T13:40:16.274Z,2.00
2018-01-04T13:42:45.993Z,2.20
2018-01-04T13:45:15.135Z,2.15
2018-01-04T13:47:44.518Z,1.40
2018-01-04T13:50:13.677Z,2.70
2018-01-04T13:52:42.778Z,2.67
2018-01-04T13:55:11.929Z,1.98
2018-01-04T13:57:41.098Z,1.77
2018-01-04T14:00:10.219Z,2.00
2018-01-04T14:02:39.416Z,3.08
2018-01-04T14:05:08.647Z,2.20
2018-01-04T14:07:37.762Z,2.08
2018-01-04T14:10:07.674Z,1.90
2018-01-04T14:12:36.839Z,2.10
2018-01-04T14:15:07.450Z,2.95
2018-01-04T14:17:36.703Z,2.55
2018-01-04T14:20:07.423Z,2.65
2018-01-04T14:22:37.340Z,2.80
2018-01-04T14:25:06.756Z,2.35
2018-01-04T14:27:36.082Z,2.25
2018-01-04T14:30:05.338Z,2.70
2018-01-04T14:32:35.249Z,2.50
2018-01-04T14:35:06.214Z,1.70
2018-01-04T14:37:36.105Z,2.78
2018-01-04T14:40:05.294Z,2.35
2018-01-04T14:42:34.531Z,3.20
2018-01-04T14:45:03.657Z,2.50
2018-01-04T14:47:32.798Z,2.08
2018-01-04T14:50:03.510Z,3.80
2018-01-04T14:52:33.340Z,2.30
2018-01-04T14:55:02.481Z,2.83
2018-01-04T14:57:31.993Z,2.50
2018-01-04T15:00:01.875Z,3.37
2018-01-04T15:02:31.098Z,4.37
2018-01-04T15:05:01.276Z,2.67
2018-01-04T15:07:30.513Z,2.95
2018-01-04T15:10:01.350Z,3.10
2018-01-04T15:12:30.511Z,2.28
2018-01-04T15:14:59.730Z,2.60
2018-01-04T15:17:29.696Z,2.95
2018-01-04T15:19:58.900Z,3.25
2018-01-04T15:22:28.062Z,3.62
2018-01-04T15:24:58.257Z,4.80
2018-01-04T15:27:27.526Z,4.15
2018-01-04T15:29:57.541Z,3.00
2018-01-04T15:32:26.741Z,2.37
2018-01-04T15:34:56.502Z,2.97
2018-01-04T15:37:26.436Z,3.53
2018-01-04T15:39:56.382Z,3.30
2018-01-04T15:42:25.574Z,2.95
2018-01-04T15:44:54.762Z,2.80
2018-01-04T15:47:23.898Z,3.90
2018-01-04T15:49:53.596Z,5.12
2018-01-04T15:52:23.750Z,3.60
2018-01-04T15:54:53.665Z,3.53
2018-01-04T15:57:25.642Z,3.75
2018-01-04T15:59:55.674Z,2.58
2018-01-04T16:02:25.622Z,2.50
2018-01-04T16:04:55.055Z,3.90
2018-01-04T16:07:24.264Z,3.45
2018-01-04T16:09:53.416Z,3.45
2018-01-04T16:12:22.713Z,4.97
2018-01-04T16:14:51.867Z,4.87
2018-01-04T16:17:21.840Z,3.45
2018-01-04T16:19:51.076Z,4.93
2018-01-04T16:22:21.030Z,4.57
2018-01-04T16:24:50.978Z,5.25
2018-01-04T16:27:20.999Z,5.20
2018-01-04T16:29:50.120Z,5.43
2018-01-04T16:32:19.220Z,4.82
2018-01-04T16:34:49.196Z,5.20
2018-01-04T16:37:18.937Z,5.10
2018-01-04T16:39:48.066Z,6.47
2018-01-04T16:42:18.782Z,11.38
2018-01-04T16:44:47.920Z,5.30
2018-01-04T16:47:17.805Z,5.65
2018-01-04T16:49:47.899Z,8.05
2018-01-04T16:52:17.153Z,12.48
2018-01-04T16:54:47.262Z,6.50
2018-01-04T16:57:16.413Z,6.43
2018-01-04T16:59:45.505Z,8.50
2018-01-04T17:02:14.971Z,7.18
2018-01-04T17:04:45.056Z,22.13
2018-01-04T17:07:14.845Z,7.07
2018-01-04T17:09:44.043Z,7.22
2018-01-04T17:12:13.215Z,7.62
2018-01-04T17:14:42.336Z,6.30
2018-01-04T17:17:11.441Z,8.48
2018-01-04T17:19:40.702Z,8.55
2018-01-04T17:22:09.864Z,9.40
2018-01-04T17:24:38.982Z,10.38
2018-01-04T17:27:08.995Z,10.35
2018-01-04T17:29:38.243Z,10.85
2018-01-04T17:32:08.665Z,9.32
2018-01-04T17:34:39.547Z,11.12
2018-01-04T17:37:10.227Z,10.93
2018-01-04T17:39:39.689Z,13.55
2018-01-04T17:42:08.935Z,10.07
2018-01-04T17:44:38.104Z,11.38
2018-01-04T17:47:08.277Z,10.18
2018-01-04T17:49:38.551Z,11.80
2018-01-04T17:52:08.527Z,11.25
2018-01-04T17:54:37.841Z,11.68
2018-01-04T17:57:07.846Z,11.90
2018-01-04T17:59:40.913Z,12.70
2018-01-04T18:02:11.711Z,14.10
2018-01-04T18:04:42.075Z,13.60
2018-01-04T18:07:14.140Z,12.18
2018-01-04T18:09:44.218Z,13.23
2018-01-04T18:12:13.371Z,12.98
2018-01-04T18:14:42.755Z,11.60
2018-01-04T18:17:11.903Z,13.30
2018-01-04T18:19:41.109Z,15.40
2018-01-04T18:22:10.282Z,13.02
2018-01-04T18:24:39.441Z,13.32
2018-01-04T18:27:08.564Z,13.50
2018-01-04T18:29:37.713Z,13.82
2018-01-04T18:32:06.855Z,13.82
2018-01-04T18:34:36.784Z,15.07
2018-01-04T18:37:07.625Z,14.02
2018-01-04T18:39:36.733Z,13.50
2018-01-04T18:42:05.838Z,15.13
2018-01-04T18:44:35.014Z,12.60
2018-01-04T18:47:04.142Z,15.32
2018-01-04T18:49:33.301Z,14.45
2018-01-04T18:52:02.461Z,14.45
2018-01-04T18:54:32.363Z,14.65
2018-01-04T18:57:01.528Z,14.43
2018-01-04T18:59:31.117Z,14.68
2018-01-04T19:02:00.397Z,13.07
2018-01-04T19:04:29.604Z,14.65
2018-01-04T19:06:59.466Z,14.23
2018-01-04T19:09:28.618Z,15.02
2018-01-04T19:11:58.611Z,16.27
2018-01-04T19:14:28.100Z,16.00
2018-01-04T19:16:57.471Z,16.30
2018-01-04T19:19:27.010Z,15.95
2018-01-04T19:21:58.307Z,20.08
2018-01-04T19:24:27.757Z,18.00
2018-01-04T19:26:57.024Z,17.00
2018-01-04T19:29:26.489Z,22.30
2018-01-04T19:31:55.955Z,19.40
2018-01-04T19:34:26.786Z,22.67
2018-01-04T19:36:56.256Z,21.05
2018-01-04T19:39:25.469Z,19.23
2018-01-04T19:41:54.650Z,20.80
2018-01-04T19:44:24.343Z,17.95
2018-01-04T19:46:53.555Z,21.35
2018-01-04T19:49:23.486Z,24.80
2018-01-04T19:51:53.556Z,24.85
2018-01-04T19:54:22.796Z,22.23
2018-01-04T19:56:51.981Z,21.37
2018-01-04T19:59:21.171Z,23.70
2018-01-04T20:01:50.294Z,22.67
2018-01-04T20:04:19.427Z,23.20
2018-01-04T20:06:48.625Z,20.20
2018-01-04T20:09:17.749Z,23.38
2018-01-04T20:11:46.935Z,23.52
2018-01-04T20:14:16.115Z,22.00
2018-01-04T20:16:45.463Z,21.17
2018-01-04T20:19:14.731Z,21.80
2018-01-04T20:21:44.081Z,19.90
2018-01-04T20:24:13.244Z,22.90
2018-01-04T20:26:42.464Z,22.77
2018-01-04T20:29:11.974Z,22.05
2018-01-04T20:31:41.162Z,23.17
2018-01-04T20:34:11.192Z,23.38
2018-01-04T20:36:41.803Z,20.92
2018-01-04T20:39:11.694Z,23.02
2018-01-04T20:41:41.929Z,22.00
2018-01-04T20:44:11.081Z,21.85
2018-01-04T20:46:40.191Z,20.42
2018-01-04T20:49:09.321Z,21.92
2018-01-04T20:51:38.878Z,22.65
2018-01-04T20:54:08.003Z,20.25
2018-01-04T20:56:37.137Z,22.80
2018-01-04T20:59:06.309Z,19.73
2018-01-04T21:01:35.415Z,21.62
2018-01-04T21:04:04.751Z,19.83
2018-01-04T21:06:35.154Z,19.98
2018-01-04T21:09:04.440Z,20.02
2018-01-04T21:11:33.568Z,18.17
2018-01-04T21:14:02.965Z,17.02
2018-01-04T21:16:32.267Z,21.67
2018-01-04T21:19:01.690Z,15.38
2018-01-04T21:21:31.149Z,14.45
2018-01-04T21:24:00.496Z,16.55
2018-01-04T21:26:29.741Z,15.02
2018-01-04T21:29:00.221Z,16.75
2018-01-04T21:31:29.525Z,17.52
2018-01-04T21:33:58.738Z,25.90
2018-01-04T21:36:28.383Z,17.33
2018-01-04T21:38:57.703Z,13.77
2018-01-04T21:41:27.050Z,13.38
2018-01-04T21:43:56.351Z,15.75
2018-01-04T21:46:25.514Z,15.70
2018-01-04T21:48:54.714Z,35.13
2018-01-04T21:51:24.046Z,13.50
2018-01-04T21:53:53.376Z,16.80
2018-01-04T21:56:23.260Z,14.57
2018-01-04T21:58:52.691Z,13.65
2018-01-04T22:01:21.969Z,13.75
2018-01-04T22:03:51.687Z,13.70
2018-01-04T22:06:20.884Z,15.52
2018-01-04T22:08:50.055Z,15.48
2018-01-04T22:11:19.989Z,12.88
2018-01-04T22:13:49.216Z,16.85
2018-01-04T22:16:20.084Z,12.73
2018-01-04T22:18:50.062Z,13.20
2018-01-04T22:21:20.248Z,13.45
2018-01-04T22:23:49.400Z,12.32
2018-01-04T22:26:18.528Z,13.73
2018-01-04T22:28:48.261Z,14.70
2018-01-04T22:31:17.361Z,12.13
2018-01-04T22:33:46.542Z,13.77
2018-01-04T22:36:15.721Z,14.68
2018-01-04T22:38:44.907Z,17.17
2018-01-04T22:41:14.951Z,15.57
2018-01-04T22:43:44.906Z,15.45
2018-01-04T22:46:14.069Z,13.25
2018-01-04T22:48:43.200Z,14.30
2018-01-04T22:51:13.320Z,12.93
2018-01-04T22:53:43.210Z,11.82
2018-01-04T22:56:12.380Z,11.23
2018-01-04T22:58:41.588Z,12.18
2018-01-04T23:01:10.677Z,12.02
2018-01-04T23:03:39.856Z,14.35
2018-01-04T23:06:09.127Z,13.88
2018-01-04T23:08:38.240Z,12.98
2018-01-04T23:11:07.369Z,11.98
2018-01-04T23:13:36.517Z,12.20
2018-01-04T23:16:05.644Z,11.80
2018-01-04T23:18:35.597Z,12.93
2018-01-04T23:21:06.401Z,12.13
2018-01-04T23:23:35.510Z,12.73
2018-01-04T23:26:04.653Z,12.25
2018-01-04T23:28:34.566Z,12.15
2018-01-04T23:31:03.708Z,12.15
2018-01-04T23:33:32.859Z,12.48
2018-01-04T23:36:02.797Z,11.15
2018-01-04T23:38:31.936Z,14.43
2018-01-04T23:41:01.047Z,13.02
2018-01-04T23:43:31.160Z,13.98
2018-01-04T23:46:00.322Z,14.05
2018-01-04T23:48:29.687Z,14.40
2018-01-04T23:50:58.949Z,15.13
2018-01-04T23:53:28.249Z,14.65
2018-01-04T23:55:57.538Z,12.85
2018-01-04T23:58:26.824Z,11.50
